createdAt,value
2022-11-16T00:02:15.265Z,19.13
2022-11-16T00:04:42.213Z,15.37
2022-11-16T00:07:09.223Z,23.30
2022-11-16T00:09:36.184Z,14.30
2022-11-16T00:12:06.386Z,15.73
2022-11-16T00:14:34.876Z,16.33
2022-11-16T00:17:01.850Z,15.83
2022-11-16T00:19:28.499Z,15.93
2022-11-16T00:21:55.190Z,13.50
2022-11-16T00:24:22.622Z,14.00
2022-11-16T00:26:50.211Z,12.60
2022-11-16T00:29:19.132Z,13.90
2022-11-16T00:31:46.541Z,17.60
2022-11-16T00:34:13.533Z,15.20
2022-11-16T00:36:40.086Z,19.20
2022-11-16T00:39:06.717Z,16.27
2022-11-16T00:41:33.443Z,17.73
2022-11-16T00:43:59.950Z,13.53
2022-11-16T00:46:26.453Z,17.27
2022-11-16T00:48:53.124Z,21.50
2022-11-16T00:51:19.802Z,20.87
2022-11-16T00:53:46.448Z,20.03
2022-11-16T00:56:12.878Z,14.30
2022-11-16T00:58:39.423Z,21.03
2022-11-16T01:01:07.565Z,20.60
2022-11-16T01:03:35.220Z,21.00
2022-11-16T01:06:03.290Z,13.13
2022-11-16T01:08:29.940Z,18.20
2022-11-16T01:11:16.518Z,19.60
2022-11-16T01:13:43.154Z,14.03
2022-11-16T01:16:10.123Z,15.57
2022-11-16T01:18:37.205Z,19.80
2022-11-16T01:21:06.312Z,11.60
2022-11-16T01:23:33.096Z,15.80
2022-11-16T01:26:01.869Z,18.53
2022-11-16T01:28:32.209Z,18.60
2022-11-16T01:30:59.351Z,20.43
2022-11-16T01:33:26.200Z,22.97
2022-11-16T01:35:52.840Z,18.20
2022-11-16T01:38:19.360Z,16.20
2022-11-16T01:40:46.103Z,17.77
2022-11-16T01:43:17.980Z,14.87
2022-11-16T01:45:45.087Z,16.10
2022-11-16T01:48:14.978Z,14.03
2022-11-16T01:50:42.340Z,14.73
2022-11-16T01:53:10.204Z,14.77
2022-11-16T01:55:37.624Z,17.33
2022-11-16T01:58:04.576Z,15.07
2022-11-16T02:00:31.420Z,18.40
2022-11-16T02:02:57.947Z,17.33
2022-11-16T02:05:31.375Z,21.97
2022-11-16T02:08:32.776Z,13.73
2022-11-16T02:11:22.578Z,10.73
2022-11-16T02:14:09.490Z,20.77
2022-11-16T02:17:07.942Z,11.20
2022-11-16T02:19:50.160Z,14.70
2022-11-16T02:22:58.622Z,15.47
2022-11-16T02:25:49.478Z,14.27
2022-11-16T02:28:31.470Z,17.50
2022-11-16T02:31:00.755Z,24.70
2022-11-16T02:33:35.355Z,12.90
2022-11-16T02:36:04.085Z,10.50
2022-11-16T02:38:34.162Z,17.93
2022-11-16T02:41:08.883Z,18.60
2022-11-16T02:43:38.858Z,16.50
2022-11-16T02:46:08.656Z,17.23
2022-11-16T02:48:38.243Z,19.10
2022-11-16T02:51:06.657Z,18.93
2022-11-16T02:53:37.824Z,16.03
2022-11-16T02:56:04.554Z,19.83
2022-11-16T02:58:31.353Z,19.00
2022-11-16T03:01:20.979Z,15.87
2022-11-16T03:04:23.007Z,12.83
2022-11-16T03:06:50.634Z,13.63
2022-11-16T03:09:28.772Z,13.30
2022-11-16T03:12:02.167Z,17.80
2022-11-16T03:14:47.767Z,20.67
2022-11-16T03:17:41.494Z,10.83
2022-11-16T03:20:14.832Z,17.90
2022-11-16T03:22:47.618Z,17.77
2022-11-16T03:25:16.902Z,13.07
2022-11-16T03:28:03.149Z,12.43
2022-11-16T03:30:31.433Z,17.53
2022-11-16T03:33:08.956Z,9.07
2022-11-16T03:35:44.645Z,17.73
2022-11-16T03:38:12.219Z,22.13
2022-11-16T03:40:39.711Z,17.53
2022-11-16T03:43:07.557Z,17.20
2022-11-16T03:45:35.268Z,14.67
2022-11-16T03:48:01.781Z,23.33
2022-11-16T03:50:28.648Z,17.03
2022-11-16T03:52:55.243Z,14.57
2022-11-16T03:55:21.825Z,10.90
2022-11-16T03:57:48.337Z,15.40
2022-11-16T04:00:15.216Z,12.03
2022-11-16T04:02:41.839Z,12.60
2022-11-16T04:05:27.940Z,24.43
2022-11-16T04:08:12.906Z,12.43
2022-11-16T04:10:57.867Z,15.73
2022-11-16T04:13:48.514Z,11.03
2022-11-16T04:16:33.669Z,17.80
2022-11-16T04:19:18.896Z,15.93
2022-11-16T04:22:08.945Z,15.37
2022-11-16T04:24:37.469Z,14.73
2022-11-16T04:27:24.979Z,15.43
2022-11-16T04:29:51.715Z,15.47
2022-11-16T04:32:36.923Z,12.60
2022-11-16T04:35:22.073Z,18.53
2022-11-16T04:37:48.610Z,11.90
2022-11-16T04:40:27.929Z,18.07
2022-11-16T04:42:56.534Z,10.33
2022-11-16T04:45:42.708Z,13.43
2022-11-16T04:48:10.108Z,19.77
2022-11-16T04:50:37.071Z,13.33
2022-11-16T04:53:05.117Z,16.53
2022-11-16T04:55:31.722Z,17.03
2022-11-16T04:57:58.389Z,9.63
2022-11-16T05:00:25.494Z,14.30
2022-11-16T05:02:54.642Z,14.53
2022-11-16T05:05:24.852Z,15.13
2022-11-16T05:07:51.353Z,14.27
2022-11-16T05:10:17.990Z,21.83
2022-11-16T05:12:44.438Z,19.30
2022-11-16T05:15:11.218Z,13.87
2022-11-16T05:17:37.710Z,12.53
2022-11-16T05:20:23.292Z,15.17
2022-11-16T05:22:57.194Z,17.90
2022-11-16T05:25:24.004Z,12.17
2022-11-16T05:27:50.685Z,13.83
2022-11-16T05:30:17.443Z,21.70
2022-11-16T05:32:44.336Z,22.60
2022-11-16T05:35:10.933Z,38.47
2022-11-16T05:37:37.443Z,32.13
2022-11-16T05:40:04.741Z,23.00
2022-11-16T05:42:31.202Z,30.37
2022-11-16T05:44:57.802Z,18.83
2022-11-16T05:47:24.672Z,25.97
2022-11-16T05:49:51.371Z,17.50
2022-11-16T05:52:17.954Z,29.13
2022-11-16T05:54:44.604Z,28.77
2022-11-16T05:57:11.369Z,24.60
2022-11-16T05:59:37.925Z,25.33
2022-11-16T06:02:05.013Z,31.43
2022-11-16T06:04:32.887Z,29.33
2022-11-16T06:06:59.461Z,24.63
2022-11-16T06:09:26.070Z,32.40
2022-11-16T06:11:52.673Z,21.60
2022-11-16T06:14:19.119Z,23.70
2022-11-16T06:16:45.753Z,27.57
2022-11-16T06:19:12.288Z,23.20
2022-11-16T06:21:38.839Z,41.20
2022-11-16T06:24:09.215Z,24.93
2022-11-16T06:26:36.524Z,26.43
2022-11-16T06:29:03.141Z,38.57
2022-11-16T06:31:30.134Z,28.83
2022-11-16T06:33:56.617Z,27.57
2022-11-16T06:36:23.120Z,26.57
2022-11-16T06:38:49.748Z,26.07
2022-11-16T06:41:16.379Z,33.53
2022-11-16T06:43:42.847Z,25.80
2022-11-16T06:46:09.387Z,23.43
2022-11-16T06:48:36.640Z,24.40
2022-11-16T06:51:03.320Z,21.40
2022-11-16T06:56:14.892Z,30.80
2022-11-16T06:58:42.926Z,34.00
2022-11-16T07:01:11.368Z,25.97
2022-11-16T07:03:38.258Z,33.90
2022-11-16T07:06:12.108Z,42.77
2022-11-16T07:08:39.302Z,37.43
2022-11-16T07:11:07.339Z,34.80
2022-11-16T07:13:35.131Z,30.13
2022-11-16T07:16:06.723Z,30.00
2022-11-16T07:18:35.387Z,26.83
2022-11-16T07:21:06.833Z,31.57
2022-11-16T07:23:33.462Z,26.73
2022-11-16T07:26:01.680Z,26.80
2022-11-16T07:28:29.419Z,28.67
2022-11-16T07:31:00.933Z,20.63
2022-11-16T07:33:27.417Z,27.47
2022-11-16T07:35:53.973Z,27.00
2022-11-16T07:38:20.454Z,30.87
2022-11-16T07:40:47.110Z,26.53
2022-11-16T07:43:13.886Z,34.57
2022-11-16T07:45:40.353Z,28.90
2022-11-16T07:48:06.862Z,25.23
2022-11-16T07:50:33.412Z,30.07
2022-11-16T07:52:59.888Z,27.63
2022-11-16T07:55:31.770Z,34.80
2022-11-16T07:57:59.344Z,23.47
2022-11-16T08:00:25.857Z,28.27
2022-11-16T08:02:52.370Z,28.37
2022-11-16T08:05:19.186Z,25.20
2022-11-16T08:07:45.679Z,28.17
2022-11-16T08:10:12.215Z,30.23
2022-11-16T08:12:38.681Z,27.73
2022-11-16T08:15:05.482Z,29.10
2022-11-16T08:17:32.330Z,28.57
2022-11-16T08:19:58.793Z,20.90
2022-11-16T08:22:25.310Z,29.23
2022-11-16T08:24:51.826Z,26.60
2022-11-16T08:27:18.284Z,26.20
2022-11-16T08:29:44.764Z,27.13
2022-11-16T08:32:11.296Z,32.47
2022-11-16T08:34:38.255Z,29.67
2022-11-16T08:37:04.735Z,38.67
2022-11-16T08:39:31.311Z,39.70
2022-11-16T08:41:57.784Z,33.43
2022-11-16T08:44:24.567Z,25.83
2022-11-16T08:46:51.090Z,31.03
2022-11-16T08:49:17.685Z,26.47
2022-11-16T08:51:44.588Z,33.80
2022-11-16T08:54:11.157Z,27.40
2022-11-16T08:56:37.750Z,29.83
2022-11-16T08:59:04.318Z,24.93
2022-11-16T09:01:32.569Z,30.47
2022-11-16T09:04:00.027Z,31.87
2022-11-16T09:06:27.707Z,29.37
2022-11-16T09:08:54.495Z,26.30
2022-11-16T09:11:23.296Z,34.50
2022-11-16T09:13:51.583Z,29.43
2022-11-16T09:16:20.788Z,43.40
2022-11-16T09:18:49.499Z,32.17
2022-11-16T09:21:27.515Z,32.77
2022-11-16T09:23:55.179Z,24.40
2022-11-16T09:26:23.310Z,23.97
2022-11-16T09:28:56.004Z,31.73
2022-11-16T09:31:23.827Z,32.57
2022-11-16T09:33:50.790Z,40.70
2022-11-16T09:36:17.581Z,33.40
2022-11-16T09:41:52.802Z,28.13
2022-11-16T09:44:27.216Z,33.40
2022-11-16T09:46:57.145Z,28.90
2022-11-16T09:49:38.392Z,29.33
2022-11-16T09:52:21.704Z,37.37
2022-11-16T09:54:49.338Z,24.53
2022-11-16T09:57:19.252Z,29.67
2022-11-16T09:59:49.022Z,27.23
2022-11-16T10:02:19.359Z,25.73
2022-11-16T10:04:58.795Z,21.87
2022-11-16T10:07:41.752Z,21.50
2022-11-16T10:10:16.717Z,23.83
2022-11-16T10:12:55.945Z,20.43
2022-11-16T10:15:46.105Z,18.73
2022-11-16T10:18:53.744Z,28.30
2022-11-16T10:21:33.155Z,27.13
2022-11-16T10:24:26.203Z,25.00
2022-11-16T10:26:59.600Z,29.70
2022-11-16T10:29:35.854Z,30.93
2022-11-16T10:32:12.817Z,30.17
2022-11-16T10:34:45.561Z,26.90
2022-11-16T10:37:12.836Z,19.27
2022-11-16T10:39:41.081Z,23.13
2022-11-16T10:42:13.291Z,19.93
2022-11-16T10:44:44.273Z,14.20
2022-11-16T10:47:21.126Z,16.97
2022-11-16T10:49:57.595Z,21.43
2022-11-16T10:52:25.295Z,19.70
2022-11-16T10:54:53.283Z,17.43
2022-11-16T10:57:20.083Z,19.10
2022-11-16T10:59:59.079Z,20.47
2022-11-16T11:02:31.569Z,24.97
2022-11-16T11:05:23.237Z,22.80
2022-11-16T11:07:56.768Z,16.53
2022-11-16T11:10:31.925Z,17.30
2022-11-16T11:13:10.546Z,19.03
2022-11-16T11:15:38.235Z,15.13
2022-11-16T11:18:24.931Z,15.70
2022-11-16T11:21:19.242Z,14.93
2022-11-16T11:23:53.554Z,19.63
2022-11-16T11:26:35.831Z,17.77
2022-11-16T11:29:21.143Z,12.23
2022-11-16T11:31:50.804Z,15.20
2022-11-16T11:34:28.478Z,11.37
2022-11-16T11:37:01.715Z,22.00
2022-11-16T11:39:34.000Z,13.90
2022-11-16T11:42:22.249Z,19.13
2022-11-16T11:45:07.221Z,32.87
2022-11-16T11:47:57.424Z,16.73
2022-11-16T11:50:37.092Z,22.73
2022-11-16T11:53:34.578Z,14.57
2022-11-16T11:56:01.401Z,22.83
2022-11-16T11:58:37.388Z,18.83
2022-11-16T12:01:31.737Z,16.17
2022-11-16T12:04:19.235Z,20.47
2022-11-16T12:06:53.819Z,11.10
2022-11-16T12:09:43.023Z,15.33
2022-11-16T12:12:20.104Z,14.00
2022-11-16T12:15:18.914Z,21.13
2022-11-16T12:17:57.658Z,13.40
2022-11-16T12:20:36.777Z,16.13
2022-11-16T12:23:40.967Z,11.47
2022-11-16T12:26:23.004Z,13.47
2022-11-16T12:28:58.954Z,11.30
2022-11-16T12:31:54.899Z,14.50
2022-11-16T12:35:15.760Z,13.43
2022-11-16T12:38:09.313Z,11.23
2022-11-16T12:40:50.965Z,12.40
2022-11-16T12:43:23.895Z,22.87
2022-11-16T12:45:56.642Z,23.37
2022-11-16T12:48:51.092Z,17.40
2022-11-16T12:51:32.050Z,13.73
2022-11-16T12:54:05.024Z,24.13
2022-11-16T12:57:07.241Z,15.13
2022-11-16T13:00:08.719Z,15.30
2022-11-16T13:03:02.649Z,11.63
2022-11-16T13:05:32.226Z,24.13
2022-11-16T13:08:02.910Z,14.67
2022-11-16T13:10:33.321Z,11.80
2022-11-16T13:13:30.149Z,13.57
2022-11-16T13:15:49.341Z,17.20
2022-11-16T13:18:17.310Z,9.37
2022-11-16T13:21:01.745Z,12.70
2022-11-16T13:23:31.427Z,17.70
2022-11-16T13:26:10.367Z,12.50
2022-11-16T13:28:55.296Z,26.27
2022-11-16T13:31:26.958Z,54.70
2022-11-16T13:33:58.542Z,18.10
2022-11-16T13:36:37.209Z,17.70
2022-11-16T13:39:05.101Z,18.73
2022-11-16T13:41:34.879Z,21.20
2022-11-16T13:44:03.287Z,18.50
2022-11-16T13:46:56.514Z,13.40
2022-11-16T13:49:33.232Z,19.37
2022-11-16T13:52:21.321Z,19.23
2022-11-16T13:54:54.705Z,14.50
2022-11-16T13:57:31.058Z,8.60
2022-11-16T14:00:00.482Z,18.43
2022-11-16T14:02:31.877Z,15.43
2022-11-16T14:05:00.509Z,25.10
2022-11-16T14:07:29.254Z,16.13
2022-11-16T14:09:55.887Z,16.37
2022-11-16T14:12:37.681Z,16.40
2022-11-16T14:15:04.286Z,16.07
2022-11-16T14:18:11.895Z,11.37
2022-11-16T14:20:38.516Z,14.90
2022-11-16T14:23:20.228Z,12.10
2022-11-16T14:26:11.518Z,13.07
2022-11-16T14:29:01.998Z,10.20
2022-11-16T14:31:46.958Z,17.30
2022-11-16T14:34:39.775Z,13.83
2022-11-16T14:37:06.307Z,20.57
2022-11-16T14:39:37.627Z,44.53
2022-11-16T14:42:25.426Z,24.27
2022-11-16T14:45:01.940Z,43.27
2022-11-16T14:47:34.438Z,19.10
2022-11-16T14:50:00.914Z,27.87
2022-11-16T14:52:32.632Z,21.07
2022-11-16T14:55:02.235Z,15.87
2022-11-16T14:57:28.912Z,22.30
2022-11-16T15:00:17.966Z,20.20
2022-11-16T15:03:00.931Z,14.63
2022-11-16T15:05:33.805Z,15.93
2022-11-16T15:08:01.377Z,21.30
2022-11-16T15:10:29.319Z,16.23
2022-11-16T15:12:56.728Z,14.03
2022-11-16T15:15:26.726Z,22.10
2022-11-16T15:17:53.334Z,26.30
2022-11-16T15:20:22.459Z,17.50
2022-11-16T15:22:52.272Z,26.23
2022-11-16T15:25:43.464Z,22.17
2022-11-16T15:28:19.299Z,21.37
2022-11-16T15:30:51.472Z,16.93
2022-11-16T15:33:21.518Z,16.40
2022-11-16T15:35:48.222Z,16.87
2022-11-16T15:38:21.106Z,20.83
2022-11-16T15:40:56.497Z,27.33
2022-11-16T15:44:01.504Z,20.17
2022-11-16T15:46:32.378Z,21.33
2022-11-16T15:48:59.506Z,24.03
2022-11-16T15:51:31.313Z,22.10
2022-11-16T15:54:54.953Z,28.93
2022-11-16T15:57:23.318Z,22.00
2022-11-16T15:59:54.625Z,18.93
2022-11-16T16:02:24.369Z,20.43
2022-11-16T16:04:50.892Z,19.73
2022-11-16T16:07:39.186Z,20.33
2022-11-16T16:10:23.902Z,18.57
2022-11-16T16:12:55.042Z,16.40
2022-11-16T16:15:30.623Z,16.70
2022-11-16T16:17:58.364Z,24.90
2022-11-16T16:20:26.090Z,22.47
2022-11-16T16:22:52.666Z,22.83
2022-11-16T16:25:34.164Z,18.83
2022-11-16T16:28:00.698Z,23.60
2022-11-16T16:30:28.892Z,25.30
2022-11-16T16:32:55.551Z,19.07
2022-11-16T16:35:24.206Z,25.67
2022-11-16T16:37:55.755Z,19.30
2022-11-16T16:40:22.183Z,23.13
2022-11-16T16:42:48.782Z,25.13
2022-11-16T16:45:21.914Z,24.80
2022-11-16T16:47:49.143Z,17.00
2022-11-16T16:50:16.336Z,15.87
2022-11-16T16:52:42.887Z,20.83
2022-11-16T16:55:09.311Z,54.10
2022-11-16T16:57:35.867Z,35.27
2022-11-16T17:00:02.524Z,42.80
2022-11-16T17:02:29.144Z,52.57
2022-11-16T17:04:55.652Z,36.97
2022-11-16T17:07:22.294Z,38.20
2022-11-16T17:09:48.885Z,40.53
2022-11-16T17:12:15.604Z,39.53
2022-11-16T17:14:42.099Z,30.80
2022-11-16T17:17:08.775Z,28.33
2022-11-16T17:19:35.315Z,78.93
2022-11-16T17:22:01.769Z,149.10
2022-11-16T17:24:28.260Z,102.37
2022-11-16T17:26:54.767Z,46.77
2022-11-16T17:29:21.220Z,41.10
2022-11-16T17:31:47.790Z,45.30
2022-11-16T17:34:14.653Z,68.73
2022-11-16T17:36:41.996Z,53.20
2022-11-16T17:39:08.803Z,51.67
2022-11-16T17:41:35.370Z,46.10
2022-11-16T17:44:02.084Z,53.00
2022-11-16T17:46:29.152Z,43.93
2022-11-16T17:48:55.989Z,35.00
2022-11-16T17:51:25.080Z,41.43
2022-11-16T17:53:52.027Z,18.50
2022-11-16T17:56:21.164Z,27.30
2022-11-16T17:58:50.090Z,21.70
2022-11-16T18:01:16.651Z,22.40
2022-11-16T18:03:43.207Z,22.20
2022-11-16T18:06:15.103Z,24.13
2022-11-16T18:08:42.539Z,26.30
2022-11-16T18:11:11.457Z,49.27
2022-11-16T18:13:38.167Z,37.53
2022-11-16T18:16:19.352Z,40.97
2022-11-16T18:18:46.877Z,36.87
2022-11-16T18:21:20.084Z,40.30
2022-11-16T18:23:47.466Z,32.37
2022-11-16T18:26:16.062Z,22.17
2022-11-16T18:28:47.609Z,25.20
2022-11-16T18:31:16.313Z,20.77
2022-11-16T18:33:43.278Z,28.13
2022-11-16T18:36:10.473Z,21.60
2022-11-16T18:38:37.543Z,25.33
2022-11-16T18:41:12.739Z,31.30
2022-11-16T18:43:41.550Z,29.60
2022-11-16T18:46:08.485Z,19.70
2022-11-16T18:48:35.038Z,26.00
2022-11-16T18:51:02.897Z,21.90
2022-11-16T18:53:30.490Z,21.10
2022-11-16T18:55:58.313Z,24.00
2022-11-16T18:58:49.241Z,35.73
2022-11-16T19:01:14.291Z,26.73
2022-11-16T19:03:41.091Z,29.70
2022-11-16T19:06:10.111Z,26.10
2022-11-16T19:08:38.279Z,29.43
2022-11-16T19:11:06.546Z,36.53
2022-11-16T19:13:33.852Z,34.53
2022-11-16T19:16:00.735Z,22.47
2022-11-16T19:18:27.729Z,25.07
2022-11-16T19:21:08.580Z,23.53
2022-11-16T19:23:46.837Z,23.57
2022-11-16T19:26:15.128Z,20.80
2022-11-16T19:28:43.557Z,27.13
2022-11-16T19:31:16.119Z,26.73
2022-11-16T19:33:43.262Z,22.40
2022-11-16T19:36:12.682Z,21.37
2022-11-16T19:38:40.096Z,23.53
2022-11-16T19:41:07.597Z,24.17
2022-11-16T19:43:34.681Z,23.93
2022-11-16T19:46:06.050Z,11.67
2022-11-16T19:48:33.083Z,14.07
2022-11-16T19:51:10.941Z,18.60
2022-11-16T19:53:38.116Z,25.63
2022-11-16T19:56:06.023Z,37.30
2022-11-16T19:58:34.561Z,26.67
2022-11-16T20:01:04.736Z,36.63
2022-11-16T20:03:31.917Z,34.83
2022-11-16T20:06:10.322Z,29.37
2022-11-16T20:08:38.655Z,20.03
2022-11-16T20:11:20.677Z,24.67
2022-11-16T20:13:52.829Z,17.17
2022-11-16T20:16:26.149Z,11.60
2022-11-16T20:18:53.366Z,19.43
2022-11-16T20:21:25.655Z,14.23
2022-11-16T20:23:53.044Z,19.10
2022-11-16T20:26:21.612Z,20.27
2022-11-16T20:28:51.045Z,15.83
2022-11-16T20:31:19.725Z,22.20
2022-11-16T20:33:51.551Z,19.73
2022-11-16T20:36:18.610Z,14.93
2022-11-16T20:38:45.542Z,17.87
2022-11-16T20:41:17.400Z,21.43
2022-11-16T20:43:45.192Z,24.87
2022-11-16T20:46:13.786Z,26.63
2022-11-16T20:48:41.336Z,19.60
2022-11-16T20:51:09.221Z,20.87
2022-11-16T20:53:36.090Z,34.23
2022-11-16T20:56:04.309Z,35.90
2022-11-16T20:58:32.144Z,22.67
2022-11-16T21:01:02.892Z,29.20
2022-11-16T21:03:29.448Z,36.63
2022-11-16T21:05:56.114Z,29.07
2022-11-16T21:08:24.837Z,24.17
2022-11-16T21:10:51.492Z,28.10
2022-11-16T21:13:37.946Z,42.20
2022-11-16T21:16:11.465Z,42.63
2022-11-16T21:18:39.039Z,29.10
2022-11-16T21:21:14.237Z,46.60
2022-11-16T21:23:43.161Z,25.77
2022-11-16T21:26:14.639Z,46.27
2022-11-16T21:28:44.594Z,46.23
2022-11-16T21:31:17.407Z,47.20
2022-11-16T21:33:45.175Z,32.70
2022-11-16T21:36:19.499Z,31.33
2022-11-16T21:38:46.496Z,30.53
2022-11-16T21:41:14.261Z,23.60
2022-11-16T21:43:41.489Z,23.43
2022-11-16T21:46:15.886Z,29.57
2022-11-16T21:48:42.522Z,24.30
2022-11-16T21:51:13.691Z,19.40
2022-11-16T21:53:40.811Z,6.27
2022-11-16T21:56:09.292Z,14.23
2022-11-16T21:58:35.799Z,14.43
2022-11-16T22:01:02.548Z,14.67
2022-11-16T22:03:30.643Z,14.23
2022-11-16T22:06:20.880Z,10.63
2022-11-16T22:08:48.088Z,17.50
2022-11-16T22:11:15.460Z,10.87
2022-11-16T22:13:42.566Z,13.67
2022-11-16T22:16:13.428Z,6.90
2022-11-16T22:18:39.928Z,20.10
2022-11-16T22:21:07.296Z,16.03
2022-11-16T22:23:34.430Z,16.30
2022-11-16T22:26:09.399Z,8.67
2022-11-16T22:28:36.367Z,14.10
2022-11-16T22:31:05.314Z,13.27
2022-11-16T22:33:32.486Z,17.87
2022-11-16T22:35:59.431Z,13.97
2022-11-16T22:38:26.353Z,9.10
2022-11-16T22:40:55.163Z,16.47
2022-11-16T22:43:23.668Z,16.17
2022-11-16T22:45:50.149Z,23.70
2022-11-16T22:48:16.582Z,19.10
2022-11-16T22:50:43.201Z,11.10
2022-11-16T22:53:10.306Z,10.03
2022-11-16T22:55:38.000Z,17.93
2022-11-16T22:58:05.669Z,13.83
2022-11-16T23:00:37.500Z,16.90
2022-11-16T23:03:07.475Z,11.80
2022-11-16T23:05:34.062Z,16.43
2022-11-16T23:08:00.662Z,12.60
2022-11-16T23:10:27.122Z,12.87
2022-11-16T23:13:12.296Z,13.83
2022-11-16T23:15:50.639Z,16.33
2022-11-16T23:18:19.571Z,17.17
2022-11-16T23:21:04.721Z,29.27
2022-11-16T23:23:49.716Z,8.93
2022-11-16T23:26:42.200Z,11.13
2022-11-16T23:29:09.978Z,13.83
2022-11-16T23:31:37.462Z,14.17
2022-11-16T23:34:04.786Z,10.13
2022-11-16T23:36:31.239Z,10.40
2022-11-16T23:38:58.945Z,14.83
2022-11-16T23:41:43.963Z,19.33
2022-11-16T23:44:10.605Z,13.57
2022-11-16T23:46:37.035Z,11.40
2022-11-16T23:49:03.499Z,8.40
2022-11-16T23:51:29.969Z,15.00
2022-11-16T23:53:56.509Z,14.03
2022-11-16T23:56:23.442Z,14.80
2022-11-16T23:58:50.210Z,15.57
